createdAt,value
2018-03-23T19:52:42.805Z,7.40
2018-03-23T19:55:55.116Z,7.30
2018-03-23T19:58:22.593Z,7.20
2018-03-23T20:00:50.134Z,7.20
2018-03-23T20:03:18.038Z,7.10
2018-03-23T20:05:45.504Z,7.10
2018-03-23T20:08:12.970Z,7.10
2018-03-23T20:10:41.215Z,7.00
2018-03-23T20:13:08.684Z,7.00
2018-03-23T20:15:36.172Z,7.00
2018-03-23T20:18:09.464Z,7.00
2018-03-23T20:20:42.686Z,6.90
2018-03-23T20:23:10.230Z,6.90
2018-03-23T20:25:37.958Z,6.90
2018-03-23T20:31:08.434Z,6.90
2018-03-23T20:33:36.709Z,6.90
2018-03-23T20:36:04.234Z,6.90
2018-03-23T20:38:31.701Z,6.90
2018-03-23T20:40:59.249Z,6.90
2018-03-23T20:43:26.819Z,6.90
2018-03-23T20:45:55.128Z,6.90
2018-03-23T20:48:22.610Z,6.80
2018-03-23T20:50:50.104Z,6.80
2018-03-23T20:53:18.420Z,6.70
2018-03-23T20:55:45.990Z,6.70
2018-03-23T20:58:14.267Z,6.60
2018-03-23T21:00:41.774Z,6.60
2018-03-23T21:03:09.451Z,6.60
2018-03-23T21:05:37.137Z,6.60
2018-03-23T21:08:04.751Z,6.50
2018-03-23T21:10:32.272Z,6.50
2018-03-23T21:12:59.884Z,6.50
2018-03-23T21:15:27.650Z,6.50
2018-03-23T21:17:55.164Z,6.40
2018-03-23T21:20:22.663Z,6.40
2018-03-23T21:22:51.256Z,6.40
2018-03-23T21:25:19.527Z,6.30
2018-03-23T21:27:47.040Z,6.30
2018-03-23T21:30:14.596Z,6.30
2018-03-23T21:32:42.178Z,6.30
2018-03-23T21:35:09.830Z,6.20
2018-03-23T21:37:37.379Z,6.20
2018-03-23T21:40:04.913Z,6.20
2018-03-23T21:42:33.259Z,6.20
2018-03-23T21:45:00.772Z,6.10
2018-03-23T21:47:28.282Z,6.20
2018-03-23T21:49:55.803Z,6.10
2018-03-23T21:52:23.312Z,6.00
2018-03-23T21:54:51.944Z,6.00
2018-03-23T21:57:19.545Z,5.90
2018-03-23T21:59:47.413Z,5.80
2018-03-23T22:02:16.513Z,5.70
2018-03-23T22:04:44.050Z,5.70
2018-03-23T22:07:20.385Z,5.70
2018-03-23T22:09:49.343Z,5.60
2018-03-23T22:12:17.632Z,5.60
2018-03-23T22:14:45.904Z,5.60
2018-03-23T22:17:13.568Z,5.50
2018-03-23T22:19:42.036Z,5.60
2018-03-23T22:22:09.552Z,5.60
2018-03-23T22:24:37.144Z,5.50
2018-03-23T22:27:04.660Z,5.50
2018-03-23T22:29:32.168Z,5.50
2018-03-23T22:31:59.675Z,5.60
2018-03-23T22:34:27.171Z,5.60
2018-03-23T22:36:54.673Z,5.60
2018-03-23T22:39:22.947Z,5.60
2018-03-23T22:41:51.216Z,5.70
2018-03-23T22:44:19.537Z,5.70
2018-03-23T22:46:47.036Z,5.70
2018-03-23T22:49:14.527Z,5.70
2018-03-23T22:51:42.801Z,5.70
2018-03-23T22:54:11.109Z,5.80
2018-03-23T22:56:38.619Z,5.80
2018-03-23T22:59:06.204Z,5.80
2018-03-23T23:01:33.726Z,5.80
2018-03-23T23:04:01.215Z,5.80
2018-03-23T23:06:29.690Z,5.90
2018-03-23T23:08:57.242Z,5.80
2018-03-23T23:11:24.747Z,5.80
2018-03-23T23:13:52.264Z,5.80
2018-03-23T23:16:19.780Z,5.80
2018-03-23T23:18:47.290Z,5.70
2018-03-23T23:21:15.580Z,5.60
2018-03-23T23:23:43.855Z,5.50
2018-03-23T23:26:11.351Z,5.50
2018-03-23T23:28:38.868Z,5.40
2018-03-23T23:31:07.128Z,5.30
2018-03-23T23:33:34.649Z,5.30
2018-03-23T23:36:02.136Z,5.20
2018-03-23T23:38:29.639Z,5.20
2018-03-23T23:40:57.137Z,5.10
2018-03-23T23:43:24.648Z,5.10
2018-03-23T23:45:52.150Z,5.00
2018-03-23T23:48:20.071Z,5.00
2018-03-23T23:50:48.328Z,5.00
2018-03-23T23:53:15.831Z,5.00
2018-03-23T23:55:43.335Z,5.10
2018-03-23T23:58:10.833Z,5.10
